sensor_id;sensor_type;location;lat;lon;timestamp;pressure;altitude;pressure_sealevel;temperature;humidity
58072;BME280;60383;46.626;18.866;2023-07-28T00:01:12;100126.22;;;17.95;65.91
58072;BME280;60383;46.626;18.866;2023-07-28T00:03:37;100131.50;;;17.83;66.56
58072;BME280;60383;46.626;18.866;2023-07-28T00:06:03;100124.66;;;17.52;67.13
58072;BME280;60383;46.626;18.866;2023-07-28T00:08:28;100125.09;;;17.63;67.30
58072;BME280;60383;46.626;18.866;2023-07-28T00:10:53;100125.09;;;17.56;67.41
58072;BME280;60383;46.626;18.866;2023-07-28T00:13:19;100124.22;;;17.42;68.00
58072;BME280;60383;46.626;18.866;2023-07-28T00:15:44;100119.16;;;17.66;67.58
58072;BME280;60383;46.626;18.866;2023-07-28T00:18:10;100120.00;;;17.73;67.12
58072;BME280;60383;46.626;18.866;2023-07-28T00:20:35;100116.78;;;17.76;67.29
58072;BME280;60383;46.626;18.866;2023-07-28T00:23:01;100121.22;;;17.37;67.59
58072;BME280;60383;46.626;18.866;2023-07-28T00:25:26;100114.03;;;17.56;68.45
58072;BME280;60383;46.626;18.866;2023-07-28T00:27:52;100115.28;;;17.60;68.29
58072;BME280;60383;46.626;18.866;2023-07-28T00:30:17;100119.78;;;17.61;68.13
58072;BME280;60383;46.626;18.866;2023-07-28T00:32:43;100118.09;;;17.67;68.54
58072;BME280;60383;46.626;18.866;2023-07-28T00:35:08;100117.84;;;17.62;69.12
58072;BME280;60383;46.626;18.866;2023-07-28T00:37:33;100109.75;;;17.73;69.59
58072;BME280;60383;46.626;18.866;2023-07-28T00:39:59;100114.44;;;17.80;70.52
58072;BME280;60383;46.626;18.866;2023-07-28T00:42:24;100108.91;;;17.93;68.65
58072;BME280;60383;46.626;18.866;2023-07-28T00:44:50;100105.31;;;17.79;68.85
58072;BME280;60383;46.626;18.866;2023-07-28T00:47:15;100100.81;;;17.92;68.40
58072;BME280;60383;46.626;18.866;2023-07-28T00:49:41;100094.03;;;17.87;68.25
58072;BME280;60383;46.626;18.866;2023-07-28T00:52:07;100102.31;;;17.94;67.33
58072;BME280;60383;46.626;18.866;2023-07-28T00:54:33;100096.38;;;17.84;67.75
58072;BME280;60383;46.626;18.866;2023-07-28T00:56:59;100107.00;;;17.80;68.30
58072;BME280;60383;46.626;18.866;2023-07-28T00:59:26;100094.66;;;17.83;68.72
58072;BME280;60383;46.626;18.866;2023-07-28T01:01:52;100093.78;;;17.82;69.36
58072;BME280;60383;46.626;18.866;2023-07-28T01:04:18;100103.56;;;17.71;69.81
58072;BME280;60383;46.626;18.866;2023-07-28T01:09:17;100098.69;;;17.60;69.41
58072;BME280;60383;46.626;18.866;2023-07-28T01:11:57;100087.84;;;17.59;68.49
58072;BME280;60383;46.626;18.866;2023-07-28T01:14:23;100085.47;;;17.42;68.87
58072;BME280;60383;46.626;18.866;2023-07-28T01:16:49;100090.16;;;17.42;69.70
58072;BME280;60383;46.626;18.866;2023-07-28T01:19:20;100092.50;;;17.51;69.62
58072;BME280;60383;46.626;18.866;2023-07-28T01:21:57;100083.13;;;17.59;68.81
58072;BME280;60383;46.626;18.866;2023-07-28T01:24:28;100085.69;;;17.40;70.15
58072;BME280;60383;46.626;18.866;2023-07-28T01:26:55;100086.94;;;17.45;69.53
58072;BME280;60383;46.626;18.866;2023-07-28T01:29:22;100091.84;;;17.29;70.10
58072;BME280;60383;46.626;18.866;2023-07-28T01:31:48;100086.94;;;17.45;69.99
58072;BME280;60383;46.626;18.866;2023-07-28T01:34:13;100088.84;;;17.24;70.46
58072;BME280;60383;46.626;18.866;2023-07-28T01:36:39;100088.25;;;17.55;69.92
58072;BME280;60383;46.626;18.866;2023-07-28T01:39:04;100095.66;;;17.28;70.47
58072;BME280;60383;46.626;18.866;2023-07-28T01:41:30;100096.31;;;17.44;70.87
58072;BME280;60383;46.626;18.866;2023-07-28T01:43:55;100089.72;;;17.45;70.58
58072;BME280;60383;46.626;18.866;2023-07-28T01:46:21;100085.03;;;17.32;71.21
58072;BME280;60383;46.626;18.866;2023-07-28T01:48:47;100078.41;;;17.19;71.60
58072;BME280;60383;46.626;18.866;2023-07-28T01:51:13;100080.56;;;17.37;71.39
58072;BME280;60383;46.626;18.866;2023-07-28T01:53:38;100075.03;;;17.64;70.45
58072;BME280;60383;46.626;18.866;2023-07-28T01:56:04;100073.56;;;17.68;70.41
58072;BME280;60383;46.626;18.866;2023-07-28T01:58:29;100075.03;;;17.58;70.87
58072;BME280;60383;46.626;18.866;2023-07-28T02:00:55;100074.63;;;17.54;71.76
58072;BME280;60383;46.626;18.866;2023-07-28T02:03:20;100078.88;;;17.56;71.26
58072;BME280;60383;46.626;18.866;2023-07-28T02:05:46;100075.69;;;17.53;71.13
58072;BME280;60383;46.626;18.866;2023-07-28T02:08:11;100075.91;;;17.51;70.98
58072;BME280;60383;46.626;18.866;2023-07-28T02:10:36;100067.16;;;17.54;71.21
58072;BME280;60383;46.626;18.866;2023-07-28T02:13:02;100071.84;;;17.40;71.40
58072;BME280;60383;46.626;18.866;2023-07-28T02:15:27;100062.69;;;17.33;72.06
58072;BME280;60383;46.626;18.866;2023-07-28T02:17:53;100062.91;;;17.32;72.95
58072;BME280;60383;46.626;18.866;2023-07-28T02:20:18;100066.94;;;17.36;75.00
58072;BME280;60383;46.626;18.866;2023-07-28T02:22:44;100070.31;;;17.18;76.07
58072;BME280;60383;46.626;18.866;2023-07-28T02:25:10;100065.03;;;16.68;77.45
58072;BME280;60383;46.626;18.866;2023-07-28T02:27:37;100063.75;;;17.26;76.13
58072;BME280;60383;46.626;18.866;2023-07-28T02:30:03;100065.22;;;17.28;76.06
58072;BME280;60383;46.626;18.866;2023-07-28T02:32:29;100077.31;;;17.20;76.13
58072;BME280;60383;46.626;18.866;2023-07-28T02:34:55;100068.22;;;17.40;73.39
58072;BME280;60383;46.626;18.866;2023-07-28T02:37:20;100062.47;;;17.42;73.81
58072;BME280;60383;46.626;18.866;2023-07-28T02:39:46;100058.66;;;17.43;74.50
58072;BME280;60383;46.626;18.866;2023-07-28T02:42:11;100062.03;;;17.24;74.01
58072;BME280;60383;46.626;18.866;2023-07-28T02:44:37;100067.38;;;17.39;73.66
58072;BME280;60383;46.626;18.866;2023-07-28T02:47:03;100067.81;;;17.56;73.20
58072;BME280;60383;46.626;18.866;2023-07-28T02:49:29;100067.59;;;17.65;72.56
58072;BME280;60383;46.626;18.866;2023-07-28T02:51:54;100064.19;;;17.49;72.28
58072;BME280;60383;46.626;18.866;2023-07-28T02:54:19;100067.13;;;17.21;73.06
58072;BME280;60383;46.626;18.866;2023-07-28T02:56:46;100064.34;;;17.14;74.45
58072;BME280;60383;46.626;18.866;2023-07-28T02:59:11;100068.16;;;17.06;74.88
58072;BME280;60383;46.626;18.866;2023-07-28T03:01:37;100069.84;;;17.01;75.79
58072;BME280;60383;46.626;18.866;2023-07-28T03:04:03;100069.25;;;17.12;76.27
58072;BME280;60383;46.626;18.866;2023-07-28T03:06:28;100068.78;;;17.02;77.41
58072;BME280;60383;46.626;18.866;2023-07-28T03:08:54;100069.00;;;17.07;77.67
58072;BME280;60383;46.626;18.866;2023-07-28T03:11:20;100066.69;;;17.17;77.70
58072;BME280;60383;46.626;18.866;2023-07-28T03:13:45;100068.59;;;17.17;77.56
58072;BME280;60383;46.626;18.866;2023-07-28T03:16:11;100066.22;;;17.07;77.92
58072;BME280;60383;46.626;18.866;2023-07-28T03:18:36;100063.72;;;17.12;77.97
58072;BME280;60383;46.626;18.866;2023-07-28T03:21:02;100070.34;;;17.24;77.49
58072;BME280;60383;46.626;18.866;2023-07-28T03:23:27;100067.16;;;16.72;77.22
58072;BME280;60383;46.626;18.866;2023-07-28T03:25:53;100066.13;;;16.80;77.79
58072;BME280;60383;46.626;18.866;2023-07-28T03:28:18;100072.69;;;16.31;80.31
58072;BME280;60383;46.626;18.866;2023-07-28T03:30:44;100072.44;;;16.60;79.45
58072;BME280;60383;46.626;18.866;2023-07-28T03:33:09;100080.00;;;16.38;81.25
58072;BME280;60383;46.626;18.866;2023-07-28T03:35:35;100072.00;;;16.15;83.20
58072;BME280;60383;46.626;18.866;2023-07-28T03:38:00;100072.66;;;15.89;85.58
58072;BME280;60383;46.626;18.866;2023-07-28T03:40:26;100074.31;;;16.11;84.92
58072;BME280;60383;46.626;18.866;2023-07-28T03:42:52;100078.13;;;16.45;83.60
58072;BME280;60383;46.626;18.866;2023-07-28T03:45:18;100063.91;;;16.55;83.26
58072;BME280;60383;46.626;18.866;2023-07-28T03:47:44;100075.25;;;16.74;83.19
58072;BME280;60383;46.626;18.866;2023-07-28T03:50:09;100073.91;;;17.05;81.53
58072;BME280;60383;46.626;18.866;2023-07-28T03:52:35;100074.97;;;17.11;81.26
58072;BME280;60383;46.626;18.866;2023-07-28T03:55:00;100062.63;;;17.06;80.57
58072;BME280;60383;46.626;18.866;2023-07-28T03:57:26;100068.38;;;17.12;80.74
58072;BME280;60383;46.626;18.866;2023-07-28T03:59:52;100070.72;;;17.01;80.60
58072;BME280;60383;46.626;18.866;2023-07-28T04:02:17;100068.34;;;16.98;81.79
58072;BME280;60383;46.626;18.866;2023-07-28T04:04:43;100075.84;;;17.11;81.16
58072;BME280;60383;46.626;18.866;2023-07-28T04:07:08;100080.56;;;17.44;80.18
58072;BME280;60383;46.626;18.866;2023-07-28T04:09:34;100072.50;;;17.56;78.75
58072;BME280;60383;46.626;18.866;2023-07-28T04:11:59;100072.06;;;17.46;78.75
58072;BME280;60383;46.626;18.866;2023-07-28T04:14:25;100071.22;;;17.72;76.86
58072;BME280;60383;46.626;18.866;2023-07-28T04:16:50;100061.63;;;17.75;76.72
58072;BME280;60383;46.626;18.866;2023-07-28T04:19:16;100063.09;;;17.37;78.50
58072;BME280;60383;46.626;18.866;2023-07-28T04:21:41;100064.19;;;17.63;76.59
58072;BME280;60383;46.626;18.866;2023-07-28T04:24:08;100070.41;;;16.89;80.44
58072;BME280;60383;46.626;18.866;2023-07-28T04:26:33;100067.28;;;17.06;80.63
58072;BME280;60383;46.626;18.866;2023-07-28T04:28:59;100070.53;;;17.23;78.36
58072;BME280;60383;46.626;18.866;2023-07-28T04:31:24;100063.75;;;17.72;75.45
58072;BME280;60383;46.626;18.866;2023-07-28T04:33:50;100069.28;;;17.59;75.77
58072;BME280;60383;46.626;18.866;2023-07-28T04:36:15;100065.47;;;17.73;73.09
58072;BME280;60383;46.626;18.866;2023-07-28T04:38:41;100062.25;;;17.70;71.60
58072;BME280;60383;46.626;18.866;2023-07-28T04:41:06;100060.75;;;17.47;72.76
58072;BME280;60383;46.626;18.866;2023-07-28T04:43:32;100063.56;;;17.61;72.05
58072;BME280;60383;46.626;18.866;2023-07-28T04:45:57;100069.91;;;17.34;73.58
58072;BME280;60383;46.626;18.866;2023-07-28T04:48:23;100072.66;;;17.28;73.97
58072;BME280;60383;46.626;18.866;2023-07-28T04:50:48;100069.28;;;17.32;73.96
58072;BME280;60383;46.626;18.866;2023-07-28T04:53:14;100065.63;;;17.12;74.59
58072;BME280;60383;46.626;18.866;2023-07-28T04:55:40;100055.88;;;17.43;74.63
58072;BME280;60383;46.626;18.866;2023-07-28T04:58:05;100068.88;;;17.49;74.50
58072;BME280;60383;46.626;18.866;2023-07-28T05:00:31;100063.97;;;17.64;72.98
58072;BME280;60383;46.626;18.866;2023-07-28T05:02:56;100073.34;;;17.70;72.63
58072;BME280;60383;46.626;18.866;2023-07-28T05:05:22;100079.31;;;17.40;73.60
58072;BME280;60383;46.626;18.866;2023-07-28T05:07:48;100092.53;;;17.65;72.24
58072;BME280;60383;46.626;18.866;2023-07-28T05:10:13;100087.59;;;17.60;72.73
58072;BME280;60383;46.626;18.866;2023-07-28T05:12:39;100086.06;;;17.24;75.17
58072;BME280;60383;46.626;18.866;2023-07-28T05:15:05;100089.91;;;17.30;76.56
58072;BME280;60383;46.626;18.866;2023-07-28T05:17:31;100086.78;;;17.60;76.80
58072;BME280;60383;46.626;18.866;2023-07-28T05:19:56;100076.72;;;17.32;76.92
58072;BME280;60383;46.626;18.866;2023-07-28T05:22:22;100079.53;;;17.45;77.14
58072;BME280;60383;46.626;18.866;2023-07-28T05:24:47;100080.16;;;17.81;77.57
58072;BME280;60383;46.626;18.866;2023-07-28T05:27:13;100073.13;;;17.85;75.95
58072;BME280;60383;46.626;18.866;2023-07-28T05:29:38;100074.84;;;17.99;74.90
58072;BME280;60383;46.626;18.866;2023-07-28T05:32:04;100065.84;;;18.17;73.98
58072;BME280;60383;46.626;18.866;2023-07-28T05:34:30;100064.41;;;18.01;74.95
58072;BME280;60383;46.626;18.866;2023-07-28T05:36:56;100063.72;;;18.13;75.22
58072;BME280;60383;46.626;18.866;2023-07-28T05:39:21;100072.47;;;18.23;73.40
58072;BME280;60383;46.626;18.866;2023-07-28T05:41:47;100064.78;;;18.18;73.89
58072;BME280;60383;46.626;18.866;2023-07-28T05:44:13;100075.88;;;18.25;74.06
58072;BME280;60383;46.626;18.866;2023-07-28T05:46:38;100067.53;;;18.32;74.11
58072;BME280;60383;46.626;18.866;2023-07-28T05:49:04;100074.78;;;18.33;73.50
58072;BME280;60383;46.626;18.866;2023-07-28T05:51:30;100077.09;;;18.43;73.29
58072;BME280;60383;46.626;18.866;2023-07-28T05:53:55;100071.31;;;18.51;73.62
58072;BME280;60383;46.626;18.866;2023-07-28T05:56:21;100079.00;;;18.49;73.60
58072;BME280;60383;46.626;18.866;2023-07-28T05:58:47;100081.47;;;18.77;71.04
58072;BME280;60383;46.626;18.866;2023-07-28T06:01:13;100087.09;;;19.09;69.22
58072;BME280;60383;46.626;18.866;2023-07-28T06:03:39;100085.47;;;19.34;68.68
58072;BME280;60383;46.626;18.866;2023-07-28T06:06:04;100082.31;;;19.23;66.65
58072;BME280;60383;46.626;18.866;2023-07-28T06:08:30;100086.47;;;19.07;67.39
58072;BME280;60383;46.626;18.866;2023-07-28T06:10:55;100080.53;;;18.90;69.12
58072;BME280;60383;46.626;18.866;2023-07-28T06:13:21;100089.56;;;18.79;69.39
58072;BME280;60383;46.626;18.866;2023-07-28T06:15:46;100094.22;;;18.85;70.74
58072;BME280;60383;46.626;18.866;2023-07-28T06:18:12;100089.16;;;18.75;69.66
58072;BME280;60383;46.626;18.866;2023-07-28T06:20:37;100090.16;;;18.94;69.89
58072;BME280;60383;46.626;18.866;2023-07-28T06:23:03;100090.44;;;19.25;69.31
58072;BME280;60383;46.626;18.866;2023-07-28T06:25:28;100081.50;;;19.48;68.67
58072;BME280;60383;46.626;18.866;2023-07-28T06:27:54;100088.44;;;19.64;66.41
58072;BME280;60383;46.626;18.866;2023-07-28T06:30:20;100087.00;;;19.55;66.95
58072;BME280;60383;46.626;18.866;2023-07-28T06:32:46;100089.69;;;19.68;67.34
58072;BME280;60383;46.626;18.866;2023-07-28T06:35:11;100089.16;;;19.85;65.85
58072;BME280;60383;46.626;18.866;2023-07-28T06:37:37;100099.88;;;19.74;66.06
58072;BME280;60383;46.626;18.866;2023-07-28T06:40:05;100093.00;;;20.09;63.64
58072;BME280;60383;46.626;18.866;2023-07-28T06:42:33;100092.38;;;20.25;63.96
58072;BME280;60383;46.626;18.866;2023-07-28T06:44:58;100094.28;;;20.69;62.62
58072;BME280;60383;46.626;18.866;2023-07-28T06:47:24;100086.66;;;20.83;61.47
58072;BME280;60383;46.626;18.866;2023-07-28T06:49:49;100091.69;;;21.04;62.34
58072;BME280;60383;46.626;18.866;2023-07-28T06:52:14;100096.16;;;20.94;61.04
58072;BME280;60383;46.626;18.866;2023-07-28T06:54:40;100100.41;;;20.96;61.16
58072;BME280;60383;46.626;18.866;2023-07-28T06:57:06;100094.59;;;20.98;60.95
58072;BME280;60383;46.626;18.866;2023-07-28T06:59:32;100101.72;;;20.94;60.84
58072;BME280;60383;46.626;18.866;2023-07-28T07:01:57;100096.81;;;21.08;60.88
58072;BME280;60383;46.626;18.866;2023-07-28T07:04:23;100089.09;;;21.10;62.34
58072;BME280;60383;46.626;18.866;2023-07-28T07:06:48;100085.94;;;21.18;61.22
58072;BME280;60383;46.626;18.866;2023-07-28T07:09:14;100073.47;;;21.09;60.74
58072;BME280;60383;46.626;18.866;2023-07-28T07:11:40;100082.81;;;21.14;62.65
58072;BME280;60383;46.626;18.866;2023-07-28T07:14:06;100081.00;;;21.20;60.62
58072;BME280;60383;46.626;18.866;2023-07-28T07:16:32;100084.44;;;21.34;59.52
58072;BME280;60383;46.626;18.866;2023-07-28T07:18:57;100085.63;;;21.26;61.90
58072;BME280;60383;46.626;18.866;2023-07-28T07:21:23;100077.28;;;21.68;59.36
58072;BME280;60383;46.626;18.866;2023-07-28T07:23:49;100079.00;;;21.81;59.36
58072;BME280;60383;46.626;18.866;2023-07-28T07:26:14;100081.44;;;21.90;58.09
58072;BME280;60383;46.626;18.866;2023-07-28T07:28:40;100072.09;;;21.84;58.58
58072;BME280;60383;46.626;18.866;2023-07-28T07:31:14;100069.31;;;22.08;58.26
58072;BME280;60383;46.626;18.866;2023-07-28T07:33:40;100069.22;;;22.26;57.37
58072;BME280;60383;46.626;18.866;2023-07-28T07:36:12;100068.59;;;22.36;56.84
58072;BME280;60383;46.626;18.866;2023-07-28T07:38:38;100069.28;;;22.67;55.33
58072;BME280;60383;46.626;18.866;2023-07-28T07:41:03;100060.59;;;22.40;55.07
58072;BME280;60383;46.626;18.866;2023-07-28T07:43:29;100054.03;;;22.58;56.74
58072;BME280;60383;46.626;18.866;2023-07-28T07:45:55;100058.81;;;22.74;56.51
58072;BME280;60383;46.626;18.866;2023-07-28T07:48:20;100066.09;;;23.16;55.49
58072;BME280;60383;46.626;18.866;2023-07-28T07:50:46;100052.41;;;23.32;54.23
58072;BME280;60383;46.626;18.866;2023-07-28T07:53:11;100068.94;;;23.33;54.40
58072;BME280;60383;46.626;18.866;2023-07-28T07:55:37;100047.09;;;23.47;51.16
58072;BME280;60383;46.626;18.866;2023-07-28T07:58:02;100051.31;;;23.33;51.86
58072;BME280;60383;46.626;18.866;2023-07-28T08:00:29;100047.72;;;23.49;50.21
58072;BME280;60383;46.626;18.866;2023-07-28T08:02:54;100056.38;;;23.65;50.67
58072;BME280;60383;46.626;18.866;2023-07-28T08:05:20;100044.50;;;23.40;53.15
58072;BME280;60383;46.626;18.866;2023-07-28T08:07:46;100038.59;;;23.71;51.47
58072;BME280;60383;46.626;18.866;2023-07-28T08:10:12;100047.72;;;23.83;49.44
58072;BME280;60383;46.626;18.866;2023-07-28T08:12:38;100040.25;;;23.72;48.95
58072;BME280;60383;46.626;18.866;2023-07-28T08:15:04;100041.13;;;23.72;50.75
58072;BME280;60383;46.626;18.866;2023-07-28T08:17:30;100045.78;;;24.01;49.94
58072;BME280;60383;46.626;18.866;2023-07-28T08:19:55;100045.41;;;24.14;48.03
58072;BME280;60383;46.626;18.866;2023-07-28T08:22:22;100035.16;;;24.20;49.83
58072;BME280;60383;46.626;18.866;2023-07-28T08:24:47;100035.53;;;24.06;49.18
58072;BME280;60383;46.626;18.866;2023-07-28T08:27:13;100033.22;;;24.43;49.75
58072;BME280;60383;46.626;18.866;2023-07-28T08:29:38;100038.94;;;24.53;48.43
58072;BME280;60383;46.626;18.866;2023-07-28T08:32:04;100023.59;;;24.55;47.40
58072;BME280;60383;46.626;18.866;2023-07-28T08:34:29;100031.44;;;24.76;48.44
58072;BME280;60383;46.626;18.866;2023-07-28T08:36:55;100037.78;;;24.93;47.64
58072;BME280;60383;46.626;18.866;2023-07-28T08:39:20;100031.88;;;24.90;47.38
58072;BME280;60383;46.626;18.866;2023-07-28T08:41:46;100026.19;;;24.62;46.13
58072;BME280;60383;46.626;18.866;2023-07-28T08:44:11;100024.38;;;24.95;44.50
58072;BME280;60383;46.626;18.866;2023-07-28T08:46:37;100022.94;;;25.20;44.03
58072;BME280;60383;46.626;18.866;2023-07-28T08:49:03;100028.22;;;25.39;43.88
58072;BME280;60383;46.626;18.866;2023-07-28T08:51:29;100029.19;;;25.55;44.00
58072;BME280;60383;46.626;18.866;2023-07-28T08:53:54;100033.91;;;25.49;45.62
58072;BME280;60383;46.626;18.866;2023-07-28T08:56:23;100033.59;;;25.45;43.54
58072;BME280;60383;46.626;18.866;2023-07-28T08:58:49;100029.06;;;25.72;43.36
58072;BME280;60383;46.626;18.866;2023-07-28T09:01:15;100028.25;;;25.76;44.51
58072;BME280;60383;46.626;18.866;2023-07-28T09:03:41;100016.94;;;26.04;44.97
58072;BME280;60383;46.626;18.866;2023-07-28T09:06:07;100010.94;;;26.27;43.51
58072;BME280;60383;46.626;18.866;2023-07-28T09:08:37;100006.84;;;26.51;43.55
58072;BME280;60383;46.626;18.866;2023-07-28T09:11:04;99996.22;;;26.68;42.97
58072;BME280;60383;46.626;18.866;2023-07-28T09:13:40;100005.75;;;26.62;42.67
58072;BME280;60383;46.626;18.866;2023-07-28T09:16:18;100021.72;;;26.51;42.04
58072;BME280;60383;46.626;18.866;2023-07-28T09:18:44;100012.19;;;26.04;42.72
58072;BME280;60383;46.626;18.866;2023-07-28T09:21:17;99994.50;;;26.04;42.81
58072;BME280;60383;46.626;18.866;2023-07-28T09:23:43;99991.50;;;26.15;42.90
58072;BME280;60383;46.626;18.866;2023-07-28T09:26:09;100000.34;;;26.40;43.24
58072;BME280;60383;46.626;18.866;2023-07-28T09:28:39;100005.13;;;26.44;43.86
58072;BME280;60383;46.626;18.866;2023-07-28T09:31:05;100001.13;;;26.30;44.08
58072;BME280;60383;46.626;18.866;2023-07-28T09:33:36;100016.16;;;26.08;43.73
58072;BME280;60383;46.626;18.866;2023-07-28T09:36:09;99996.75;;;26.02;43.85
58072;BME280;60383;46.626;18.866;2023-07-28T09:38:40;100000.97;;;26.04;44.76
58072;BME280;60383;46.626;18.866;2023-07-28T09:41:10;100002.19;;;26.19;44.44
58072;BME280;60383;46.626;18.866;2023-07-28T09:43:40;100000.28;;;25.92;45.97
58072;BME280;60383;46.626;18.866;2023-07-28T09:46:07;99995.00;;;25.95;46.84
58072;BME280;60383;46.626;18.866;2023-07-28T09:48:34;99999.31;;;26.08;44.91
58072;BME280;60383;46.626;18.866;2023-07-28T09:51:12;99998.38;;;25.97;46.03
58072;BME280;60383;46.626;18.866;2023-07-28T09:53:48;100003.97;;;26.40;43.94
58072;BME280;60383;46.626;18.866;2023-07-28T09:56:15;99997.78;;;25.90;45.19
58072;BME280;60383;46.626;18.866;2023-07-28T09:58:49;99997.22;;;26.36;43.62
58072;BME280;60383;46.626;18.866;2023-07-28T10:01:15;100002.88;;;26.46;45.22
58072;BME280;60383;46.626;18.866;2023-07-28T10:03:41;99988.91;;;26.57;43.45
58072;BME280;60383;46.626;18.866;2023-07-28T10:06:07;100001.53;;;26.54;44.08
58072;BME280;60383;46.626;18.866;2023-07-28T10:08:33;99997.03;;;26.63;43.39
58072;BME280;60383;46.626;18.866;2023-07-28T10:10:59;99994.09;;;26.91;43.62
58072;BME280;60383;46.626;18.866;2023-07-28T10:13:26;99985.69;;;27.12;42.45
58072;BME280;60383;46.626;18.866;2023-07-28T10:15:53;100000.03;;;27.15;42.96
58072;BME280;60383;46.626;18.866;2023-07-28T10:18:21;99995.22;;;26.95;41.85
58072;BME280;60383;46.626;18.866;2023-07-28T10:20:47;99975.53;;;26.95;42.75
58072;BME280;60383;46.626;18.866;2023-07-28T10:23:20;99979.78;;;27.08;43.15
58072;BME280;60383;46.626;18.866;2023-07-28T10:25:56;99983.69;;;26.91;44.17
58072;BME280;60383;46.626;18.866;2023-07-28T10:28:37;99989.34;;;26.97;43.22
58072;BME280;60383;46.626;18.866;2023-07-28T10:31:08;99984.56;;;27.23;43.40
58072;BME280;60383;46.626;18.866;2023-07-28T10:33:40;99985.47;;;27.44;41.55
58072;BME280;60383;46.626;18.866;2023-07-28T10:39:13;99971.94;;;27.31;43.73
58072;BME280;60383;46.626;18.866;2023-07-28T10:41:54;99969.38;;;27.08;44.55
58072;BME280;60383;46.626;18.866;2023-07-28T10:44:25;99981.78;;;27.33;42.54
58072;BME280;60383;46.626;18.866;2023-07-28T10:46:51;99966.63;;;27.45;42.39
58072;BME280;60383;46.626;18.866;2023-07-28T10:49:16;99982.94;;;27.73;42.54
58072;BME280;60383;46.626;18.866;2023-07-28T10:51:42;99969.16;;;27.46;43.82
58072;BME280;60383;46.626;18.866;2023-07-28T10:54:07;99958.75;;;27.57;45.39
58072;BME280;60383;46.626;18.866;2023-07-28T10:56:33;99964.63;;;27.86;43.51
58072;BME280;60383;46.626;18.866;2023-07-28T10:59:03;99970.22;;;27.97;43.95
58072;BME280;60383;46.626;18.866;2023-07-28T11:01:34;99956.69;;;28.09;42.77
58072;BME280;60383;46.626;18.866;2023-07-28T11:04:19;99954.13;;;28.28;43.10
58072;BME280;60383;46.626;18.866;2023-07-28T11:06:47;99963.50;;;27.82;42.83
58072;BME280;60383;46.626;18.866;2023-07-28T11:09:16;99950.81;;;27.95;43.77
58072;BME280;60383;46.626;18.866;2023-07-28T11:11:42;99950.50;;;28.02;42.59
58072;BME280;60383;46.626;18.866;2023-07-28T11:14:08;99965.69;;;28.16;43.35
58072;BME280;60383;46.626;18.866;2023-07-28T11:16:39;99960.91;;;28.12;42.96
58072;BME280;60383;46.626;18.866;2023-07-28T11:19:13;99942.97;;;27.71;43.00
58072;BME280;60383;46.626;18.866;2023-07-28T11:21:44;99942.41;;;27.90;43.74
58072;BME280;60383;46.626;18.866;2023-07-28T11:24:10;99934.75;;;28.01;43.96
58072;BME280;60383;46.626;18.866;2023-07-28T11:26:37;99938.94;;;28.19;45.29
58072;BME280;60383;46.626;18.866;2023-07-28T11:29:04;99935.66;;;28.57;42.79
58072;BME280;60383;46.626;18.866;2023-07-28T11:31:30;99936.00;;;28.50;40.37
58072;BME280;60383;46.626;18.866;2023-07-28T11:33:56;99941.66;;;28.40;40.87
58072;BME280;60383;46.626;18.866;2023-07-28T11:36:31;99939.66;;;28.56;41.43
58072;BME280;60383;46.626;18.866;2023-07-28T11:39:00;99942.88;;;28.23;41.65
58072;BME280;60383;46.626;18.866;2023-07-28T11:41:26;99945.72;;;28.18;41.86
58072;BME280;60383;46.626;18.866;2023-07-28T11:43:53;99924.78;;;28.40;41.66
58072;BME280;60383;46.626;18.866;2023-07-28T11:46:41;99929.00;;;28.37;42.26
58072;BME280;60383;46.626;18.866;2023-07-28T11:49:18;99917.88;;;28.66;42.21
58072;BME280;60383;46.626;18.866;2023-07-28T11:51:48;99913.09;;;28.72;41.34
58072;BME280;60383;46.626;18.866;2023-07-28T11:54:16;99905.97;;;28.80;42.30
58072;BME280;60383;46.626;18.866;2023-07-28T11:56:46;99922.34;;;28.78;41.38
58072;BME280;60383;46.626;18.866;2023-07-28T11:59:11;99922.28;;;28.88;42.86
58072;BME280;60383;46.626;18.866;2023-07-28T12:02:10;99921.84;;;29.10;40.90
58072;BME280;60383;46.626;18.866;2023-07-28T12:04:38;99922.84;;;29.25;40.99
58072;BME280;60383;46.626;18.866;2023-07-28T12:07:15;99918.16;;;29.10;41.17
58072;BME280;60383;46.626;18.866;2023-07-28T12:12:41;99926.75;;;29.29;40.44
58072;BME280;60383;46.626;18.866;2023-07-28T12:18:12;99925.56;;;29.00;40.80
58072;BME280;60383;46.626;18.866;2023-07-28T12:23:04;99918.31;;;29.29;41.08
58072;BME280;60383;46.626;18.866;2023-07-28T12:25:30;99915.22;;;29.30;40.75
58072;BME280;60383;46.626;18.866;2023-07-28T12:27:56;99909.25;;;29.37;40.36
58072;BME280;60383;46.626;18.866;2023-07-28T12:30:22;99910.88;;;29.43;40.86
58072;BME280;60383;46.626;18.866;2023-07-28T12:32:47;99900.97;;;29.46;40.50
58072;BME280;60383;46.626;18.866;2023-07-28T12:35:13;99900.44;;;29.44;40.51
58072;BME280;60383;46.626;18.866;2023-07-28T12:37:39;99905.63;;;29.61;39.44
58072;BME280;60383;46.626;18.866;2023-07-28T12:40:05;99894.59;;;29.35;39.99
58072;BME280;60383;46.626;18.866;2023-07-28T12:42:32;99915.75;;;29.62;39.01
58072;BME280;60383;46.626;18.866;2023-07-28T12:44:57;99898.25;;;29.36;39.96
58072;BME280;60383;46.626;18.866;2023-07-28T12:47:23;99895.91;;;29.48;40.50
58072;BME280;60383;46.626;18.866;2023-07-28T12:49:49;99890.25;;;29.48;40.58
58072;BME280;60383;46.626;18.866;2023-07-28T12:52:15;99884.13;;;29.41;40.15
58072;BME280;60383;46.626;18.866;2023-07-28T12:54:40;99883.13;;;29.21;40.92